sensor_id;sensor_type;location;lat;lon;timestamp;temperature;humidity
6468;DHT22;3267;48.794;9.928;2023-07-30T04:02:02;20.60;76.50
6468;DHT22;3267;48.794;9.928;2023-07-30T04:04:31;20.70;76.00
6468;DHT22;3267;48.794;9.928;2023-07-30T04:06:56;20.70;76.60
6468;DHT22;3267;48.794;9.928;2023-07-30T04:09:22;20.80;76.90
6468;DHT22;3267;48.794;9.928;2023-07-30T04:11:48;20.70;76.80
6468;DHT22;3267;48.794;9.928;2023-07-30T04:14:13;20.70;76.70
6468;DHT22;3267;48.794;9.928;2023-07-30T04:16:39;20.60;77.10
6468;DHT22;3267;48.794;9.928;2023-07-30T04:19:06;20.60;77.20
6468;DHT22;3267;48.794;9.928;2023-07-30T04:21:31;20.60;76.80
6468;DHT22;3267;48.794;9.928;2023-07-30T04:23:57;20.60;76.90
6468;DHT22;3267;48.794;9.928;2023-07-30T04:26:22;20.70;76.40
6468;DHT22;3267;48.794;9.928;2023-07-30T04:28:48;20.60;78.00
6468;DHT22;3267;48.794;9.928;2023-07-30T04:31:14;20.60;76.50
6468;DHT22;3267;48.794;9.928;2023-07-30T04:33:39;20.60;77.30
6468;DHT22;3267;48.794;9.928;2023-07-30T04:36:05;23.10;79.10
6468;DHT22;3267;48.794;9.928;2023-07-30T04:38:32;20.60;77.50
6468;DHT22;3267;48.794;9.928;2023-07-30T04:40:58;20.60;78.20
6468;DHT22;3267;48.794;9.928;2023-07-30T04:43:24;20.80;77.90
6468;DHT22;3267;48.794;9.928;2023-07-30T04:45:49;20.60;78.40
6468;DHT22;3267;48.794;9.928;2023-07-30T04:48:15;21.00;78.90
6468;DHT22;3267;48.794;9.928;2023-07-30T04:50:41;20.70;78.40
6468;DHT22;3267;48.794;9.928;2023-07-30T04:53:08;20.60;78.80
6468;DHT22;3267;48.794;9.928;2023-07-30T04:55:34;23.00;81.70
6468;DHT22;3267;48.794;9.928;2023-07-30T04:57:59;20.70;78.90
6468;DHT22;3267;48.794;9.928;2023-07-30T05:00:25;21.70;80.10
6468;DHT22;3267;48.794;9.928;2023-07-30T05:02:51;20.80;76.90
6468;DHT22;3267;48.794;9.928;2023-07-30T05:05:16;20.80;78.00
6468;DHT22;3267;48.794;9.928;2023-07-30T05:07:42;20.90;77.20
6468;DHT22;3267;48.794;9.928;2023-07-30T05:10:08;20.90;77.70
6468;DHT22;3267;48.794;9.928;2023-07-30T05:12:36;21.00;78.30
6468;DHT22;3267;48.794;9.928;2023-07-30T05:15:03;21.00;78.30
6468;DHT22;3267;48.794;9.928;2023-07-30T05:17:29;21.00;78.50
6468;DHT22;3267;48.794;9.928;2023-07-30T05:19:54;21.30;77.50
6468;DHT22;3267;48.794;9.928;2023-07-30T05:22:20;21.40;77.80
6468;DHT22;3267;48.794;9.928;2023-07-30T05:24:45;23.10;79.10
6468;DHT22;3267;48.794;9.928;2023-07-30T05:27:11;22.00;78.10
6468;DHT22;3267;48.794;9.928;2023-07-30T05:29:37;21.20;77.00
6468;DHT22;3267;48.794;9.928;2023-07-30T05:32:02;21.40;75.60
6468;DHT22;3267;48.794;9.928;2023-07-30T05:34:28;21.60;74.40
6468;DHT22;3267;48.794;9.928;2023-07-30T05:36:54;23.10;76.30
6468;DHT22;3267;48.794;9.928;2023-07-30T05:39:23;23.90;77.50
6468;DHT22;3267;48.794;9.928;2023-07-30T05:41:48;21.70;76.10
6468;DHT22;3267;48.794;9.928;2023-07-30T05:44:14;21.80;75.00
6468;DHT22;3267;48.794;9.928;2023-07-30T05:46:39;24.40;78.80
6468;DHT22;3267;48.794;9.928;2023-07-30T05:49:05;23.30;77.10
6468;DHT22;3267;48.794;9.928;2023-07-30T05:51:30;21.60;75.80
6468;DHT22;3267;48.794;9.928;2023-07-30T05:53:56;21.80;76.20
6468;DHT22;3267;48.794;9.928;2023-07-30T05:56:22;22.10;76.60
6468;DHT22;3267;48.794;9.928;2023-07-30T05:58:47;22.90;76.50
6468;DHT22;3267;48.794;9.928;2023-07-30T06:01:13;24.10;77.60
6468;DHT22;3267;48.794;9.928;2023-07-30T06:03:38;24.00;78.10
6468;DHT22;3267;48.794;9.928;2023-07-30T06:06:04;21.80;76.70
6468;DHT22;3267;48.794;9.928;2023-07-30T06:08:29;21.80;76.60
6468;DHT22;3267;48.794;9.928;2023-07-30T06:11:00;21.70;75.60
6468;DHT22;3267;48.794;9.928;2023-07-30T06:13:26;21.80;74.90
6468;DHT22;3267;48.794;9.928;2023-07-30T06:15:51;21.80;76.70
6468;DHT22;3267;48.794;9.928;2023-07-30T06:18:17;21.80;75.20
6468;DHT22;3267;48.794;9.928;2023-07-30T06:20:42;21.90;75.20
6468;DHT22;3267;48.794;9.928;2023-07-30T06:23:10;22.00;75.90
6468;DHT22;3267;48.794;9.928;2023-07-30T06:25:38;22.10;76.80
6468;DHT22;3267;48.794;9.928;2023-07-30T06:28:08;21.90;75.20
6468;DHT22;3267;48.794;9.928;2023-07-30T06:30:33;21.80;75.10
6468;DHT22;3267;48.794;9.928;2023-07-30T06:32:59;21.80;75.10
6468;DHT22;3267;48.794;9.928;2023-07-30T06:35:31;21.70;75.70
6468;DHT22;3267;48.794;9.928;2023-07-30T06:37:56;21.70;76.10
6468;DHT22;3267;48.794;9.928;2023-07-30T06:40:22;21.70;75.70
6468;DHT22;3267;48.794;9.928;2023-07-30T06:42:51;21.70;75.50
6468;DHT22;3267;48.794;9.928;2023-07-30T06:45:20;21.70;75.20
6468;DHT22;3267;48.794;9.928;2023-07-30T06:47:46;23.00;77.10
6468;DHT22;3267;48.794;9.928;2023-07-30T06:50:14;22.50;77.00
6468;DHT22;3267;48.794;9.928;2023-07-30T06:52:40;21.70;76.80
6468;DHT22;3267;48.794;9.928;2023-07-30T06:55:09;21.70;76.10
6468;DHT22;3267;48.794;9.928;2023-07-30T06:57:34;21.70;75.50
6468;DHT22;3267;48.794;9.928;2023-07-30T07:00:00;21.80;75.60
6468;DHT22;3267;48.794;9.928;2023-07-30T07:02:26;21.70;75.60
6468;DHT22;3267;48.794;9.928;2023-07-30T07:04:54;21.70;76.60
6468;DHT22;3267;48.794;9.928;2023-07-30T07:07:20;21.90;75.60
6468;DHT22;3267;48.794;9.928;2023-07-30T07:09:49;22.00;76.30
6468;DHT22;3267;48.794;9.928;2023-07-30T07:12:19;22.00;75.40
6468;DHT22;3267;48.794;9.928;2023-07-30T07:14:45;22.00;76.20
6468;DHT22;3267;48.794;9.928;2023-07-30T07:17:12;22.00;75.90
6468;DHT22;3267;48.794;9.928;2023-07-30T07:19:58;21.60;74.80
6468;DHT22;3267;48.794;9.928;2023-07-30T07:23:01;22.20;76.90
6468;DHT22;3267;48.794;9.928;2023-07-30T07:25:44;22.20;75.30
6468;DHT22;3267;48.794;9.928;2023-07-30T07:28:12;22.40;75.00
6468;DHT22;3267;48.794;9.928;2023-07-30T07:30:38;22.40;75.00
6468;DHT22;3267;48.794;9.928;2023-07-30T07:33:04;22.60;76.00
6468;DHT22;3267;48.794;9.928;2023-07-30T07:35:32;22.70;76.10
6468;DHT22;3267;48.794;9.928;2023-07-30T07:37:58;22.70;76.20
6468;DHT22;3267;48.794;9.928;2023-07-30T07:40:25;23.60;77.00
6468;DHT22;3267;48.794;9.928;2023-07-30T07:42:51;22.80;76.00
6468;DHT22;3267;48.794;9.928;2023-07-30T07:45:17;22.70;75.40
6468;DHT22;3267;48.794;9.928;2023-07-30T07:47:46;22.70;75.80
6468;DHT22;3267;48.794;9.928;2023-07-30T07:50:11;22.90;77.10
6468;DHT22;3267;48.794;9.928;2023-07-30T07:52:37;23.10;77.00
6468;DHT22;3267;48.794;9.928;2023-07-30T07:55:04;23.10;76.20
6468;DHT22;3267;48.794;9.928;2023-07-30T07:57:30;22.90;76.20
6468;DHT22;3267;48.794;9.928;2023-07-30T08:00:17;23.00;75.50
6468;DHT22;3267;48.794;9.928;2023-07-30T08:02:52;22.90;75.80
6468;DHT22;3267;48.794;9.928;2023-07-30T08:05:22;23.00;76.00
6468;DHT22;3267;48.794;9.928;2023-07-30T08:07:53;23.00;75.50
6468;DHT22;3267;48.794;9.928;2023-07-30T08:10:19;22.90;76.20
6468;DHT22;3267;48.794;9.928;2023-07-30T08:12:45;22.90;76.90
6468;DHT22;3267;48.794;9.928;2023-07-30T08:15:10;22.90;76.40
6468;DHT22;3267;48.794;9.928;2023-07-30T08:17:39;22.90;76.90
6468;DHT22;3267;48.794;9.928;2023-07-30T08:20:06;22.90;76.60
6468;DHT22;3267;48.794;9.928;2023-07-30T08:22:32;22.50;77.20
6468;DHT22;3267;48.794;9.928;2023-07-30T08:25:00;22.90;77.10
6468;DHT22;3267;48.794;9.928;2023-07-30T08:27:26;22.90;77.20
6468;DHT22;3267;48.794;9.928;2023-07-30T08:29:51;22.90;77.10
6468;DHT22;3267;48.794;9.928;2023-07-30T08:32:17;22.80;76.80
6468;DHT22;3267;48.794;9.928;2023-07-30T08:34:43;22.80;77.40
6468;DHT22;3267;48.794;9.928;2023-07-30T08:37:08;22.80;77.90
6468;DHT22;3267;48.794;9.928;2023-07-30T08:39:35;22.80;78.60
6468;DHT22;3267;48.794;9.928;2023-07-30T08:42:04;22.70;79.30
6468;DHT22;3267;48.794;9.928;2023-07-30T08:44:29;22.70;77.60
6468;DHT22;3267;48.794;9.928;2023-07-30T08:46:55;22.60;78.20
6468;DHT22;3267;48.794;9.928;2023-07-30T08:49:21;22.60;78.00
6468;DHT22;3267;48.794;9.928;2023-07-30T08:51:52;22.70;78.80
6468;DHT22;3267;48.794;9.928;2023-07-30T08:54:21;22.70;78.70
6468;DHT22;3267;48.794;9.928;2023-07-30T08:56:49;22.40;77.30
6468;DHT22;3267;48.794;9.928;2023-07-30T08:59:16;22.20;77.20
6468;DHT22;3267;48.794;9.928;2023-07-30T09:01:45;22.30;78.10
6468;DHT22;3267;48.794;9.928;2023-07-30T09:04:17;22.20;77.40
6468;DHT22;3267;48.794;9.928;2023-07-30T09:06:49;22.30;78.70
6468;DHT22;3267;48.794;9.928;2023-07-30T09:09:15;22.40;77.80
6468;DHT22;3267;48.794;9.928;2023-07-30T09:11:41;22.90;78.10
6468;DHT22;3267;48.794;9.928;2023-07-30T09:14:07;22.30;77.20
6468;DHT22;3267;48.794;9.928;2023-07-30T09:16:33;23.30;78.50
6468;DHT22;3267;48.794;9.928;2023-07-30T09:18:59;23.20;78.20
6468;DHT22;3267;48.794;9.928;2023-07-30T09:21:36;22.50;77.30
6468;DHT22;3267;48.794;9.928;2023-07-30T09:24:03;25.10;79.70
6468;DHT22;3267;48.794;9.928;2023-07-30T09:26:45;22.70;77.50
6468;DHT22;3267;48.794;9.928;2023-07-30T09:29:13;22.90;77.90
6468;DHT22;3267;48.794;9.928;2023-07-30T09:31:50;21.10;75.60
6468;DHT22;3267;48.794;9.928;2023-07-30T09:34:23;23.00;77.70
6468;DHT22;3267;48.794;9.928;2023-07-30T09:36:51;23.00;77.50
6468;DHT22;3267;48.794;9.928;2023-07-30T09:41:46;23.00;76.90
6468;DHT22;3267;48.794;9.928;2023-07-30T09:44:13;23.00;76.80
6468;DHT22;3267;48.794;9.928;2023-07-30T09:46:46;23.20;76.90
6468;DHT22;3267;48.794;9.928;2023-07-30T09:49:12;23.10;77.20
6468;DHT22;3267;48.794;9.928;2023-07-30T09:51:40;23.60;77.90
6468;DHT22;3267;48.794;9.928;2023-07-30T09:54:07;23.10;77.20
6468;DHT22;3267;48.794;9.928;2023-07-30T09:56:34;25.80;79.50
6468;DHT22;3267;48.794;9.928;2023-07-30T09:59:00;23.30;77.70
6468;DHT22;3267;48.794;9.928;2023-07-30T10:01:29;23.40;77.70
6468;DHT22;3267;48.794;9.928;2023-07-30T10:04:06;23.40;77.20
6468;DHT22;3267;48.794;9.928;2023-07-30T10:06:40;25.00;79.00
6468;DHT22;3267;48.794;9.928;2023-07-30T10:09:07;25.40;78.90
6468;DHT22;3267;48.794;9.928;2023-07-30T10:11:36;26.10;79.20
6468;DHT22;3267;48.794;9.928;2023-07-30T10:14:04;23.40;76.70
6468;DHT22;3267;48.794;9.928;2023-07-30T10:16:30;23.40;76.50
6468;DHT22;3267;48.794;9.928;2023-07-30T10:18:57;25.90;78.70
6468;DHT22;3267;48.794;9.928;2023-07-30T10:21:25;23.40;76.40
6468;DHT22;3267;48.794;9.928;2023-07-30T10:24:02;23.30;76.50
6468;DHT22;3267;48.794;9.928;2023-07-30T10:26:30;23.20;76.40
6468;DHT22;3267;48.794;9.928;2023-07-30T10:29:19;23.10;76.50
6468;DHT22;3267;48.794;9.928;2023-07-30T10:31:52;23.10;76.40
6468;DHT22;3267;48.794;9.928;2023-07-30T10:34:18;23.00;76.60
6468;DHT22;3267;48.794;9.928;2023-07-30T10:36:46;23.00;76.60
6468;DHT22;3267;48.794;9.928;2023-07-30T10:39:34;23.00;76.80
6468;DHT22;3267;48.794;9.928;2023-07-30T10:42:01;22.90;76.90
6468;DHT22;3267;48.794;9.928;2023-07-30T10:44:28;22.90;76.50
6468;DHT22;3267;48.794;9.928;2023-07-30T10:46:57;22.80;76.90
6468;DHT22;3267;48.794;9.928;2023-07-30T10:49:23;23.60;77.70
6468;DHT22;3267;48.794;9.928;2023-07-30T10:51:53;22.60;76.90
6468;DHT22;3267;48.794;9.928;2023-07-30T10:54:19;22.70;76.90
6468;DHT22;3267;48.794;9.928;2023-07-30T10:56:46;22.70;77.10
6468;DHT22;3267;48.794;9.928;2023-07-30T10:59:13;22.50;77.00
6468;DHT22;3267;48.794;9.928;2023-07-30T11:01:46;22.50;77.00
6468;DHT22;3267;48.794;9.928;2023-07-30T11:04:15;22.60;76.80
6468;DHT22;3267;48.794;9.928;2023-07-30T11:06:51;23.00;77.20
6468;DHT22;3267;48.794;9.928;2023-07-30T11:09:27;22.70;76.80
6468;DHT22;3267;48.794;9.928;2023-07-30T11:11:54;24.30;79.60
6468;DHT22;3267;48.794;9.928;2023-07-30T11:14:25;22.80;76.90
6468;DHT22;3267;48.794;9.928;2023-07-30T11:16:56;22.90;76.80
6468;DHT22;3267;48.794;9.928;2023-07-30T11:19:24;23.00;76.90
6468;DHT22;3267;48.794;9.928;2023-07-30T11:21:52;23.00;77.00
6468;DHT22;3267;48.794;9.928;2023-07-30T11:24:20;23.20;77.00
6468;DHT22;3267;48.794;9.928;2023-07-30T11:27:01;23.10;77.40
6468;DHT22;3267;48.794;9.928;2023-07-30T11:29:28;23.30;77.70
6468;DHT22;3267;48.794;9.928;2023-07-30T11:31:59;24.30;77.80
6468;DHT22;3267;48.794;9.928;2023-07-30T11:34:26;25.20;78.30
6468;DHT22;3267;48.794;9.928;2023-07-30T11:36:53;23.60;76.70
6468;DHT22;3267;48.794;9.928;2023-07-30T11:39:19;25.60;78.00
6468;DHT22;3267;48.794;9.928;2023-07-30T11:41:45;23.90;76.20
6468;DHT22;3267;48.794;9.928;2023-07-30T11:44:51;23.70;76.00
6468;DHT22;3267;48.794;9.928;2023-07-30T11:47:23;23.70;75.90
6468;DHT22;3267;48.794;9.928;2023-07-30T11:49:58;23.70;76.50
6468;DHT22;3267;48.794;9.928;2023-07-30T11:52:23;23.70;75.50
6468;DHT22;3267;48.794;9.928;2023-07-30T11:55:11;23.90;75.60
6468;DHT22;3267;48.794;9.928;2023-07-30T11:57:36;24.10;75.90
6468;DHT22;3267;48.794;9.928;2023-07-30T12:00:02;24.20;76.20
6468;DHT22;3267;48.794;9.928;2023-07-30T12:02:29;24.30;75.50
6468;DHT22;3267;48.794;9.928;2023-07-30T12:04:58;24.30;75.30
6468;DHT22;3267;48.794;9.928;2023-07-30T12:07:24;24.30;75.20
6468;DHT22;3267;48.794;9.928;2023-07-30T12:09:50;24.30;75.00
6468;DHT22;3267;48.794;9.928;2023-07-30T12:12:16;24.30;75.10
6468;DHT22;3267;48.794;9.928;2023-07-30T12:14:53;24.30;75.00
6468;DHT22;3267;48.794;9.928;2023-07-30T12:17:21;24.20;74.70
6468;DHT22;3267;48.794;9.928;2023-07-30T12:19:47;24.20;74.80
6468;DHT22;3267;48.794;9.928;2023-07-30T12:22:12;24.00;73.80
6468;DHT22;3267;48.794;9.928;2023-07-30T12:24:38;24.00;74.00
6468;DHT22;3267;48.794;9.928;2023-07-30T12:27:04;25.80;75.70
6468;DHT22;3267;48.794;9.928;2023-07-30T12:29:29;24.20;74.20
6468;DHT22;3267;48.794;9.928;2023-07-30T12:31:55;24.20;73.80
6468;DHT22;3267;48.794;9.928;2023-07-30T12:34:22;24.20;73.30
6468;DHT22;3267;48.794;9.928;2023-07-30T12:36:48;24.10;72.20
6468;DHT22;3267;48.794;9.928;2023-07-30T12:39:14;24.10;72.30
6468;DHT22;3267;48.794;9.928;2023-07-30T12:41:39;24.00;71.90
6468;DHT22;3267;48.794;9.928;2023-07-30T12:44:05;24.10;72.40
6468;DHT22;3267;48.794;9.928;2023-07-30T12:46:31;24.10;71.40
6468;DHT22;3267;48.794;9.928;2023-07-30T12:48:58;24.10;71.00
6468;DHT22;3267;48.794;9.928;2023-07-30T12:51:32;24.10;71.30
6468;DHT22;3267;48.794;9.928;2023-07-30T12:53:58;24.10;71.70
6468;DHT22;3267;48.794;9.928;2023-07-30T12:56:24;24.10;71.60
6468;DHT22;3267;48.794;9.928;2023-07-30T12:58:50;24.40;71.80
6468;DHT22;3267;48.794;9.928;2023-07-30T13:01:15;24.50;71.60
6468;DHT22;3267;48.794;9.928;2023-07-30T13:03:41;24.60;71.60
6468;DHT22;3267;48.794;9.928;2023-07-30T13:06:12;24.70;71.00
6468;DHT22;3267;48.794;9.928;2023-07-30T13:08:39;24.70;70.40
6468;DHT22;3267;48.794;9.928;2023-07-30T13:11:05;24.70;70.00
6468;DHT22;3267;48.794;9.928;2023-07-30T13:13:31;24.90;69.70
6468;DHT22;3267;48.794;9.928;2023-07-30T13:15:56;24.80;69.70
6468;DHT22;3267;48.794;9.928;2023-07-30T13:18:23;26.30;71.00
6468;DHT22;3267;48.794;9.928;2023-07-30T13:20:49;24.90;70.50
6468;DHT22;3267;48.794;9.928;2023-07-30T13:23:16;25.00;69.90
6468;DHT22;3267;48.794;9.928;2023-07-30T13:25:42;25.10;69.40
6468;DHT22;3267;48.794;9.928;2023-07-30T13:28:08;25.20;69.30
6468;DHT22;3267;48.794;9.928;2023-07-30T13:30:33;25.90;69.60
6468;DHT22;3267;48.794;9.928;2023-07-30T13:32:59;25.30;68.30
6468;DHT22;3267;48.794;9.928;2023-07-30T13:35:25;27.10;69.10
6468;DHT22;3267;48.794;9.928;2023-07-30T13:37:50;25.20;67.30
6468;DHT22;3267;48.794;9.928;2023-07-30T13:40:16;25.10;67.20
6468;DHT22;3267;48.794;9.928;2023-07-30T13:42:44;25.20;67.80
6468;DHT22;3267;48.794;9.928;2023-07-30T13:45:10;24.90;67.10
6468;DHT22;3267;48.794;9.928;2023-07-30T13:47:36;24.90;67.20
6468;DHT22;3267;48.794;9.928;2023-07-30T13:50:05;24.80;67.40
6468;DHT22;3267;48.794;9.928;2023-07-30T13:52:30;24.90;67.60
6468;DHT22;3267;48.794;9.928;2023-07-30T13:54:56;24.90;67.10
6468;DHT22;3267;48.794;9.928;2023-07-30T13:57:25;24.80;66.90
6468;DHT22;3267;48.794;9.928;2023-07-30T13:59:52;24.90;67.60
6468;DHT22;3267;48.794;9.928;2023-07-30T14:02:17;24.80;66.70
6468;DHT22;3267;48.794;9.928;2023-07-30T14:04:46;24.90;66.90
6468;DHT22;3267;48.794;9.928;2023-07-30T14:07:12;25.10;66.70
6468;DHT22;3267;48.794;9.928;2023-07-30T14:09:38;26.10;66.70
6468;DHT22;3267;48.794;9.928;2023-07-30T14:12:04;26.10;65.60
6468;DHT22;3267;48.794;9.928;2023-07-30T14:14:29;26.30;65.00
6468;DHT22;3267;48.794;9.928;2023-07-30T14:16:56;26.30;63.40
6468;DHT22;3267;48.794;9.928;2023-07-30T14:19:22;26.20;63.20
6468;DHT22;3267;48.794;9.928;2023-07-30T14:21:51;26.20;64.10
6468;DHT22;3267;48.794;9.928;2023-07-30T14:24:17;26.30;64.20
6468;DHT22;3267;48.794;9.928;2023-07-30T14:26:43;26.50;63.80
6468;DHT22;3267;48.794;9.928;2023-07-30T14:29:09;26.50;63.10
6468;DHT22;3267;48.794;9.928;2023-07-30T14:31:35;26.30;62.50
6468;DHT22;3267;48.794;9.928;2023-07-30T14:34:00;26.30;62.10
6468;DHT22;3267;48.794;9.928;2023-07-30T14:36:26;26.30;62.50
6468;DHT22;3267;48.794;9.928;2023-07-30T14:38:51;26.50;63.50
6468;DHT22;3267;48.794;9.928;2023-07-30T14:41:17;26.90;62.30
6468;DHT22;3267;48.794;9.928;2023-07-30T14:43:42;27.30;62.30
6468;DHT22;3267;48.794;9.928;2023-07-30T14:46:08;27.70;61.10
6468;DHT22;3267;48.794;9.928;2023-07-30T14:48:42;28.20;60.70
6468;DHT22;3267;48.794;9.928;2023-07-30T14:51:09;28.60;60.00
6468;DHT22;3267;48.794;9.928;2023-07-30T14:53:35;29.00;59.10
6468;DHT22;3267;48.794;9.928;2023-07-30T14:56:01;29.50;59.50
6468;DHT22;3267;48.794;9.928;2023-07-30T14:58:26;31.00;59.10
6468;DHT22;3267;48.794;9.928;2023-07-30T15:00:52;30.20;58.50
6468;DHT22;3267;48.794;9.928;2023-07-30T15:03:18;30.50;58.10
6468;DHT22;3267;48.794;9.928;2023-07-30T15:05:45;30.90;58.30
6468;DHT22;3267;48.794;9.928;2023-07-30T15:08:10;31.30;58.00
6468;DHT22;3267;48.794;9.928;2023-07-30T15:10:36;31.70;56.30
6468;DHT22;3267;48.794;9.928;2023-07-30T15:13:02;31.70;56.60
6468;DHT22;3267;48.794;9.928;2023-07-30T15:15:28;31.60;55.00
6468;DHT22;3267;48.794;9.928;2023-07-30T15:17:53;31.00;55.20
6468;DHT22;3267;48.794;9.928;2023-07-30T15:20:19;30.50;56.30
6468;DHT22;3267;48.794;9.928;2023-07-30T15:22:45;30.00;57.00
6468;DHT22;3267;48.794;9.928;2023-07-30T15:25:11;29.70;57.60
6468;DHT22;3267;48.794;9.928;2023-07-30T15:27:37;29.40;57.40
6468;DHT22;3267;48.794;9.928;2023-07-30T15:30:03;29.50;58.00
6468;DHT22;3267;48.794;9.928;2023-07-30T15:32:30;29.40;57.40
6468;DHT22;3267;48.794;9.928;2023-07-30T15:34:58;29.10;57.30
6468;DHT22;3267;48.794;9.928;2023-07-30T15:37:24;28.80;58.10
6468;DHT22;3267;48.794;9.928;2023-07-30T15:39:50;28.40;57.40
6468;DHT22;3267;48.794;9.928;2023-07-30T15:42:16;27.90;57.10
6468;DHT22;3267;48.794;9.928;2023-07-30T15:44:42;27.50;56.50
6468;DHT22;3267;48.794;9.928;2023-07-30T15:47:07;27.20;58.10
6468;DHT22;3267;48.794;9.928;2023-07-30T15:49:37;26.90;58.70
6468;DHT22;3267;48.794;9.928;2023-07-30T15:52:03;27.00;58.80
6468;DHT22;3267;48.794;9.928;2023-07-30T15:54:33;26.50;58.40
6468;DHT22;3267;48.794;9.928;2023-07-30T15:56:59;26.60;59.80
6468;DHT22;3267;48.794;9.928;2023-07-30T15:59:25;26.50;58.70
6468;DHT22;3267;48.794;9.928;2023-07-30T16:01:52;26.40;60.00
6468;DHT22;3267;48.794;9.928;2023-07-30T16:04:17;26.50;59.10
6468;DHT22;3267;48.794;9.928;2023-07-30T16:06:43;26.40;59.70
6468;DHT22;3267;48.794;9.928;2023-07-30T16:09:09;26.30;59.80
6468;DHT22;3267;48.794;9.928;2023-07-30T16:11:36;26.20;58.90
6468;DHT22;3267;48.794;9.928;2023-07-30T16:14:04;26.10;59.00
6468;DHT22;3267;48.794;9.928;2023-07-30T16:16:31;26.00;59.70
6468;DHT22;3267;48.794;9.928;2023-07-30T16:18:56;25.90;59.10
6468;DHT22;3267;48.794;9.928;2023-07-30T16:21:25;25.80;59.20
6468;DHT22;3267;48.794;9.928;2023-07-30T16:24:00;25.70;59.20
6468;DHT22;3267;48.794;9.928;2023-07-30T16:26:41;25.70;61.20
6468;DHT22;3267;48.794;9.928;2023-07-30T16:29:10;25.60;59.80
6468;DHT22;3267;48.794;9.928;2023-07-30T16:31:36;25.50;59.70
6468;DHT22;3267;48.794;9.928;2023-07-30T16:34:03;25.40;59.40
6468;DHT22;3267;48.794;9.928;2023-07-30T16:36:29;25.30;59.80
6468;DHT22;3267;48.794;9.928;2023-07-30T16:38:56;25.30;60.90
6468;DHT22;3267;48.794;9.928;2023-07-30T16:41:22;25.20;60.50
6468;DHT22;3267;48.794;9.928;2023-07-30T16:43:48;25.20;60.40
6468;DHT22;3267;48.794;9.928;2023-07-30T16:46:14;25.30;60.00
6468;DHT22;3267;48.794;9.928;2023-07-30T16:48:40;25.00;59.20
6468;DHT22;3267;48.794;9.928;2023-07-30T16:51:06;25.00;60.80
6468;DHT22;3267;48.794;9.928;2023-07-30T16:53:32;24.90;59.70
6468;DHT22;3267;48.794;9.928;2023-07-30T16:55:58;24.80;59.00
6468;DHT22;3267;48.794;9.928;2023-07-30T16:58:24;24.90;59.70
6468;DHT22;3267;48.794;9.928;2023-07-30T17:00:58;24.90;59.80
6468;DHT22;3267;48.794;9.928;2023-07-30T17:03:24;24.80;59.90
6468;DHT22;3267;48.794;9.928;2023-07-30T17:05:57;24.80;60.60
6468;DHT22;3267;48.794;9.928;2023-07-30T17:08:22;24.80;59.50
6468;DHT22;3267;48.794;9.928;2023-07-30T17:10:48;25.50;60.50
6468;DHT22;3267;48.794;9.928;2023-07-30T17:13:14;24.70;59.10
6468;DHT22;3267;48.794;9.928;2023-07-30T17:15:40;24.60;59.70
6468;DHT22;3267;48.794;9.928;2023-07-30T17:18:06;24.50;58.90
6468;DHT22;3267;48.794;9.928;2023-07-30T17:20:32;24.50;59.70
6468;DHT22;3267;48.794;9.928;2023-07-30T17:22:58;24.60;60.10
6468;DHT22;3267;48.794;9.928;2023-07-30T17:25:24;24.70;59.70
6468;DHT22;3267;48.794;9.928;2023-07-30T17:27:50;24.70;58.60
6468;DHT22;3267;48.794;9.928;2023-07-30T17:30:16;24.70;58.90
6468;DHT22;3267;48.794;9.928;2023-07-30T17:32:41;24.80;59.50
6468;DHT22;3267;48.794;9.928;2023-07-30T17:35:07;24.90;59.50
6468;DHT22;3267;48.794;9.928;2023-07-30T17:37:33;24.60;57.40
6468;DHT22;3267;48.794;9.928;2023-07-30T17:39:59;24.60;58.00
6468;DHT22;3267;48.794;9.928;2023-07-30T17:42:24;24.40;58.30
6468;DHT22;3267;48.794;9.928;2023-07-30T17:44:51;24.40;58.30
6468;DHT22;3267;48.794;9.928;2023-07-30T17:47:18;24.20;58.50
6468;DHT22;3267;48.794;9.928;2023-07-30T17:49:47;24.10;57.40
6468;DHT22;3267;48.794;9.928;2023-07-30T17:52:14;24.10;58.40
6468;DHT22;3267;48.794;9.928;2023-07-30T17:54:39;23.90;57.00
6468;DHT22;3267;48.794;9.928;2023-07-30T17:57:05;23.80;58.20
6468;DHT22;3267;48.794;9.928;2023-07-30T17:59:31;23.80;58.00
6468;DHT22;3267;48.794;9.928;2023-07-30T18:01:57;23.80;58.40
6468;DHT22;3267;48.794;9.928;2023-07-30T18:04:22;23.70;58.50
6468;DHT22;3267;48.794;9.928;2023-07-30T18:06:49;23.70;58.80
6468;DHT22;3267;48.794;9.928;2023-07-30T18:09:14;23.70;58.00
6468;DHT22;3267;48.794;9.928;2023-07-30T18:11:42;23.60;57.80
6468;DHT22;3267;48.794;9.928;2023-07-30T18:14:08;23.50;57.90
6468;DHT22;3267;48.794;9.928;2023-07-30T18:16:34;23.50;58.20
6468;DHT22;3267;48.794;9.928;2023-07-30T18:18:59;23.50;58.40
6468;DHT22;3267;48.794;9.928;2023-07-30T18:21:25;23.40;58.20
6468;DHT22;3267;48.794;9.928;2023-07-30T18:23:51;23.30;58.70
6468;DHT22;3267;48.794;9.928;2023-07-30T18:26:17;23.40;58.90
6468;DHT22;3267;48.794;9.928;2023-07-30T18:28:43;23.40;58.90
6468;DHT22;3267;48.794;9.928;2023-07-30T18:31:09;23.30;59.00
6468;DHT22;3267;48.794;9.928;2023-07-30T18:33:35;23.20;58.70
6468;DHT22;3267;48.794;9.928;2023-07-30T18:36:01;23.10;59.10
6468;DHT22;3267;48.794;9.928;2023-07-30T18:38:31;23.10;59.10
6468;DHT22;3267;48.794;9.928;2023-07-30T18:41:01;23.00;59.10
6468;DHT22;3267;48.794;9.928;2023-07-30T18:43:28;23.00;59.40
6468;DHT22;3267;48.794;9.928;2023-07-30T18:45:55;22.90;59.40
6468;DHT22;3267;48.794;9.928;2023-07-30T18:48:21;22.90;59.60
6468;DHT22;3267;48.794;9.928;2023-07-30T18:50:47;22.80;59.40
6468;DHT22;3267;48.794;9.928;2023-07-30T18:53:13;22.70;59.60
6468;DHT22;3267;48.794;9.928;2023-07-30T18:55:39;22.60;59.70
6468;DHT22;3267;48.794;9.928;2023-07-30T18:58:05;23.00;60.10
6468;DHT22;3267;48.794;9.928;2023-07-30T19:00:32;22.50;59.80
6468;DHT22;3267;48.794;9.928;2023-07-30T19:02:57;22.50;60.00
6468;DHT22;3267;48.794;9.928;2023-07-30T19:05:24;22.40;59.60
6468;DHT22;3267;48.794;9.928;2023-07-30T19:07:51;22.40;60.10
6468;DHT22;3267;48.794;9.928;2023-07-30T19:10:26;22.40;59.90
6468;DHT22;3267;48.794;9.928;2023-07-30T19:12:52;22.30;60.70
6468;DHT22;3267;48.794;9.928;2023-07-30T19:15:18;22.20;60.00
6468;DHT22;3267;48.794;9.928;2023-07-30T19:17:45;22.20;60.00
6468;DHT22;3267;48.794;9.928;2023-07-30T19:20:11;22.10;59.80
6468;DHT22;3267;48.794;9.928;2023-07-30T19:22:37;22.10;59.60
6468;DHT22;3267;48.794;9.928;2023-07-30T19:25:03;22.10;59.70
6468;DHT22;3267;48.794;9.928;2023-07-30T19:27:31;22.00;59.50
6468;DHT22;3267;48.794;9.928;2023-07-30T19:29:56;22.00;60.30
6468;DHT22;3267;48.794;9.928;2023-07-30T19:32:22;21.90;59.80
6468;DHT22;3267;48.794;9.928;2023-07-30T19:34:48;21.80;59.40
6468;DHT22;3267;48.794;9.928;2023-07-30T19:37:14;21.80;59.30
6468;DHT22;3267;48.794;9.928;2023-07-30T19:39:43;21.80;59.50
6468;DHT22;3267;48.794;9.928;2023-07-30T19:42:09;21.70;59.60
6468;DHT22;3267;48.794;9.928;2023-07-30T19:44:35;21.70;59.30
6468;DHT22;3267;48.794;9.928;2023-07-30T19:47:01;21.60;59.30
6468;DHT22;3267;48.794;9.928;2023-07-30T19:49:27;21.60;59.60
6468;DHT22;3267;48.794;9.928;2023-07-30T19:51:53;21.60;59.20
6468;DHT22;3267;48.794;9.928;2023-07-30T19:54:19;21.60;59.40
6468;DHT22;3267;48.794;9.928;2023-07-30T19:56:46;21.50;59.40
6468;DHT22;3267;48.794;9.928;2023-07-30T19:59:13;21.40;59.30
6468;DHT22;3267;48.794;9.928;2023-07-30T20:01:39;21.40;59.40
6468;DHT22;3267;48.794;9.928;2023-07-30T20:04:05;21.40;59.50
6468;DHT22;3267;48.794;9.928;2023-07-30T20:06:30;21.40;59.40